Main page
METAR-TAF:

METAR-TAF

Airports :

Pécs, Hungary

Pécs-Pogány International Airport

latitude: 46-06N, longitude: 018-14E, elevation: 201 m

Current weather observation

The report was made 40 minutes ago, at 13:45 UTC
Wind 5 kt from the East/Southeast
Temperature 23°C
Humidity 38%
Pressure 1023 hPa
Visibility 10 km or more
no clouds below 1500 m and no cumulonimbus

METAR: LHPP 281345Z 11005KT CAVOK 23/08 Q1023

Time: 16:25 (14:25 UTC)

Forecast

The report was made 3 hours and 10 minutes ago, at 11:15 UTC
Forecast valid from 28 at 12 UTC to 28 at 21 UTC
Wind 7 kt from the East
Visibility 10 km or more
no clouds below 1500 m and no cumulonimbus
Becoming
from 28 at 15 UTC to 28 at 18 UTC
Wind 3 kt from variable directions

TAF: LHPP 281115Z 2812/2821 08007KT CAVOK BECMG 2815/2818 VRB03KT

Weather observations and forecasts of more than 4000 airports (METAR and TAF reports).

The available stations are represented by yellow and red dots on the map.

Hover mouse over dot to see the name of the station.

Then click to see weather observations and forecasts.

To change the map : click on the green buttons with a black cross to zoom in, on the green button with a dash to zoom out, or on the green arrows for adjacent maps.


METAR-TAF: